Terminal Aerodrome Forecast
Issued by NWS

Home | Current Version | Previous Version | Graphics & Text | Print | Product List | Glossary On
Versions: 1 2 3 4 5 6 7 8 9 10 11 12 13 14 15 16 17 18 19 20 21 22 23 24 25 26 27 28 29 30 31 32 33 34
804
FTUS43 KLOT 291456 AAA
TAFORD
TAF AMD
KORD 291456Z 2915/3018 02018G27KT P6SM VCSH BKN019 BKN025
      TEMPO 2916/2919 6SM SHRA OVC015
     FM300100 03012G18KT P6SM BKN012
     FM300800 02012G18KT P6SM VCSH BKN008
     FM301500 05015G25KT P6SM VCSH BKN015=

USA.gov is the U.S. government's official web portal to all federal, state and local government web resources and services.